Time;durP1;ratioP1;P1;durP2;ratioP2;P2;SDS_P1;SDS_P2;PMS_P1;PMS_P2;Temp;Humidity;BMP_temperature;BMP_pressure;BME280_temperature;BME280_humidity;BME280_pressure;Samples;Min_cycle;Max_cycle;Signal;HPM_P1;HPM_P2
2021/01/01 00:00:31;;;;;;;4.45;4.07;;;6.30;99.90;;;;;;5082264;28;20031;-62
2021/01/01 00:03:00;;;;;;;4.38;3.95;;;6.30;99.90;;;;;;5090027;28;20095;-62
2021/01/01 00:05:29;;;;;;;5.82;4.03;;;6.20;99.90;;;;;;5083813;28;20066;-62
2021/01/01 00:07:55;;;;;;;3.95;3.65;;;6.40;99.90;;;;;;5087647;28;20476;-62
2021/01/01 00:10:21;;;;;;;3.75;3.33;;;6.20;99.90;;;;;;5083454;28;20036;-62
2021/01/01 00:12:47;;;;;;;5.22;2.70;;;6.20;99.90;;;;;;5084822;28;20021;-62
2021/01/01 00:15:13;;;;;;;3.38;3.08;;;6.10;99.90;;;;;;5083225;28;20090;-62
2021/01/01 00:17:39;;;;;;;4.55;3.00;;;6.20;99.90;;;;;;5090131;28;20048;-62
2021/01/01 00:20:07;;;;;;;4.10;2.50;;;6.20;99.90;;;;;;5083328;28;20075;-62
2021/01/01 00:22:33;;;;;;;3.17;2.92;;;6.20;99.90;;;;;;5089794;28;20073;-62
2021/01/01 00:24:59;;;;;;;3.30;2.95;;;6.20;99.90;;;;;;5084140;28;20099;-62
2021/01/01 00:27:30;;;;;;;3.42;3.13;;;6.10;99.90;;;;;;5089115;28;20031;-61
2021/01/01 00:29:57;;;;;;;3.38;2.97;;;6.10;99.90;;;;;;5084856;28;20028;-62
2021/01/01 00:32:23;;;;;;;3.67;2.97;;;6.10;99.90;;;;;;5087402;28;20012;-62
2021/01/01 00:34:49;;;;;;;4.50;3.60;;;6.20;99.90;;;;;;5086175;28;20557;-62
2021/01/01 00:37:15;;;;;;;6.07;3.15;;;6.20;99.90;;;;;;5088781;28;20146;-61
2021/01/01 00:39:41;;;;;;;5.65;3.72;;;6.20;99.90;;;;;;5087501;28;20036;-62
2021/01/01 00:42:06;;;;;;;5.80;3.33;;;6.10;99.90;;;;;;5081119;28;20366;-62
2021/01/01 00:44:33;;;;;;;3.10;2.90;;;6.10;99.90;;;;;;5087575;28;20514;-62
2021/01/01 00:46:59;;;;;;;5.07;4.07;;;6.10;99.90;;;;;;5081031;28;20038;-62
2021/01/01 00:49:25;;;;;;;5.78;4.55;;;6.10;99.90;;;;;;5087411;28;20027;-62
2021/01/01 00:51:50;;;;;;;11.13;5.88;;;6.10;99.90;;;;;;5087072;28;20039;-62
2021/01/01 00:54:16;;;;;;;6.50;4.43;;;6.00;99.90;;;;;;5087480;28;20445;-62
2021/01/01 00:56:42;;;;;;;5.05;3.53;;;6.00;99.90;;;;;;5085331;28;20389;-62
2021/01/01 00:59:07;;;;;;;6.25;3.10;;;6.00;99.90;;;;;;5088621;28;20063;-62
2021/01/01 01:01:33;;;;;;;3.85;2.65;;;6.00;99.90;;;;;;5083068;28;20191;-61
2021/01/01 01:03:59;;;;;;;5.72;4.43;;;6.00;99.90;;;;;;5089258;28;20063;-62
2021/01/01 01:06:25;;;;;;;7.28;4.63;;;6.00;99.90;;;;;;5081727;28;20016;-62
2021/01/01 01:08:51;;;;;;;5.63;4.30;;;6.00;99.90;;;;;;5087039;28;20020;-62
2021/01/01 01:11:26;;;;;;;3.92;3.00;;;5.90;99.90;;;;;;5082972;28;20088;-62
2021/01/01 01:13:53;;;;;;;5.93;2.85;;;5.90;99.90;;;;;;5089322;28;20101;-62
2021/01/01 01:16:27;;;;;;;3.97;2.90;;;5.90;99.90;;;;;;5086505;28;20550;-62
2021/01/01 01:18:53;;;;;;;3.35;2.90;;;5.70;99.90;;;;;;5089069;28;20027;-62
2021/01/01 01:21:22;;;;;;;2.60;2.28;;;5.70;99.90;;;;;;5082017;28;20028;-62
2021/01/01 01:23:49;;;;;;;2.60;2.40;;;5.70;99.90;;;;;;5086350;28;20028;-62
2021/01/01 01:26:14;;;;;;;4.80;2.60;;;5.50;99.90;;;;;;5082947;28;20209;-62
2021/01/01 01:28:40;;;;;;;5.55;2.90;;;5.60;99.90;;;;;;5089253;28;20142;-62
2021/01/01 01:31:07;;;;;;;7.63;3.10;;;5.50;99.90;;;;;;5086763;28;20203;-62
2021/01/01 01:33:33;;;;;;;2.95;2.72;;;5.50;99.90;;;;;;5088975;28;20506;-62
2021/01/01 01:36:00;;;;;;;6.50;3.22;;;5.30;99.90;;;;;;5082378;28;20062;-62
2021/01/01 01:38:26;;;;;;;5.85;3.13;;;5.40;99.90;;;;;;5088833;28;20024;-62
2021/01/01 01:40:51;;;;;;;5.28;3.35;;;5.30;99.90;;;;;;5080035;28;20032;-62
2021/01/01 01:43:17;;;;;;;3.72;2.92;;;5.40;99.90;;;;;;5088857;28;20088;-62
2021/01/01 01:45:43;;;;;;;4.47;2.95;;;5.30;99.90;;;;;;5082437;28;20229;-61
2021/01/01 01:48:14;;;;;;;3.85;3.15;;;5.40;99.90;;;;;;5085037;28;20045;-62
2021/01/01 01:50:41;;;;;;;4.20;3.88;;;5.40;99.90;;;;;;5087039;28;20019;-62
2021/01/01 01:53:07;;;;;;;3.88;3.50;;;5.30;99.90;;;;;;5092531;28;20079;-61
2021/01/01 01:55:33;;;;;;;5.35;4.10;;;5.00;99.90;;;;;;5089276;28;20013;-61
2021/01/01 01:58:00;;;;;;;5.88;3.60;;;4.90;99.90;;;;;;5090717;28;20032;-61
2021/01/01 02:00:53;;;;;;;6.20;3.80;;;5.00;99.90;;;;;;5088519;28;20518;-61
2021/01/01 02:03:19;;;;;;;3.90;3.38;;;4.90;99.90;;;;;;5088817;28;20039;-61
2021/01/01 02:05:44;;;;;;;4.22;3.55;;;4.90;99.90;;;;;;5085487;28;20024;-62
2021/01/01 02:08:11;;;;;;;4.55;3.15;;;5.00;99.90;;;;;;5092280;28;20028;-61
2021/01/01 02:10:37;;;;;;;5.20;4.47;;;5.00;99.90;;;;;;5086837;28;20271;-62
2021/01/01 02:13:03;;;;;;;6.50;4.65;;;5.00;99.90;;;;;;5092199;28;20657;-61
2021/01/01 02:15:30;;;;;;;4.35;3.95;;;5.00;99.90;;;;;;5085618;28;20447;-61
2021/01/01 02:17:59;;;;;;;6.05;4.20;;;5.00;99.90;;;;;;5092359;28;20024;-62
2021/01/01 02:20:24;;;;;;;8.00;3.72;;;4.90;99.90;;;;;;5085962;28;20033;-62
2021/01/01 02:22:51;;;;;;;3.75;3.45;;;4.90;99.90;;;;;;5092213;28;20015;-62
2021/01/01 02:25:16;;;;;;;7.13;3.45;;;5.00;99.90;;;;;;5085791;28;20363;-61
2021/01/01 02:27:42;;;;;;;3.97;3.47;;;4.80;99.90;;;;;;5091971;28;20062;-62
2021/01/01 02:30:09;;;;;;;7.10;3.50;;;4.80;99.90;;;;;;5086213;28;20499;-62
2021/01/01 02:32:34;;;;;;;3.90;3.60;;;4.70;99.90;;;;;;5091895;28;20103;-62
2021/01/01 02:35:01;;;;;;;4.35;3.95;;;4.60;99.90;;;;;;5086293;28;20128;-62
2021/01/01 02:37:27;;;;;;;3.95;3.65;;;4.60;99.90;;;;;;5089226;28;20249;-62
2021/01/01 02:39:52;;;;;;;5.63;4.15;;;4.60;99.90;;;;;;5089514;28;20251;-61
2021/01/01 02:42:18;;;;;;;7.10;4.18;;;4.70;99.90;;;;;;5090071;28;20031;-61
2021/01/01 02:44:46;;;;;;;5.75;4.97;;;4.60;99.90;;;;;;5069440;28;20064;-62
2021/01/01 02:47:14;;;;;;;13.60;8.18;;;4.70;99.90;;;;;;5073632;28;20016;-62
2021/01/01 02:49:39;;;;;;;22.52;9.85;;;4.60;99.90;;;;;;5088646;28;20037;-62
2021/01/01 02:52:05;;;;;;;20.80;10.65;;;4.50;99.90;;;;;;5087903;28;20024;-62
2021/01/01 02:54:31;;;;;;;34.03;17.30;;;4.70;99.90;;;;;;5088790;28;20028;-62
2021/01/01 02:56:56;;;;;;;29.30;14.77;;;4.50;99.90;;;;;;5084911;28;20389;-61
2021/01/01 02:59:22;;;;;;;27.33;14.65;;;4.70;99.90;;;;;;5089392;28;20552;-62
2021/01/01 03:01:47;;;;;;;35.38;16.88;;;4.60;99.90;;;;;;5086609;28;20027;-62
2021/01/01 03:04:14;;;;;;;16.25;9.43;;;4.40;99.90;;;;;;5089981;28;20047;-61
2021/01/01 03:06:39;;;;;;;9.00;7.30;;;4.50;99.90;;;;;;5082624;28;20174;-61
2021/01/01 03:09:05;;;;;;;8.05;7.45;;;4.40;99.90;;;;;;5080033;28;20261;-62
2021/01/01 03:11:32;;;;;;;7.38;6.68;;;4.60;99.90;;;;;;5080868;28;20089;-61
2021/01/01 03:13:58;;;;;;;8.73;6.93;;;4.60;99.90;;;;;;5091421;28;20112;-61
2021/01/01 03:16:23;;;;;;;11.23;6.55;;;4.60;99.90;;;;;;5086176;28;20618;-62
2021/01/01 03:18:49;;;;;;;6.20;5.70;;;4.50;99.90;;;;;;5089748;28;20060;-62
2021/01/01 03:21:19;;;;;;;9.23;5.20;;;4.60;99.90;;;;;;5084527;28;20482;-61
2021/01/01 03:23:45;;;;;;;5.07;4.35;;;4.60;99.90;;;;;;5091132;28;20077;-62
2021/01/01 03:26:11;;;;;;;4.97;4.00;;;4.50;99.90;;;;;;5086886;28;20085;-61
2021/01/01 03:28:36;;;;;;;9.00;4.45;;;4.70;99.90;;;;;;5088011;28;20443;-61
2021/01/01 03:31:02;;;;;;;5.38;4.78;;;4.60;99.90;;;;;;5085902;28;20107;-61
2021/01/01 03:33:28;;;;;;;6.18;4.97;;;4.50;99.90;;;;;;5086926;28;20024;-61
2021/01/01 03:35:54;;;;;;;6.47;4.55;;;4.60;99.90;;;;;;5084794;28;20028;-62
2021/01/01 03:38:20;;;;;;;5.07;4.40;;;4.60;99.90;;;;;;5085851;28;20107;-62
2021/01/01 03:40:49;;;;;;;5.10;4.40;;;4.40;99.90;;;;;;5071742;28;20107;-62
2021/01/01 03:43:15;;;;;;;4.70;4.30;;;4.30;99.90;;;;;;5090716;28;20046;-62
2021/01/01 03:45:40;;;;;;;5.43;4.43;;;4.40;99.90;;;;;;5083837;28;20031;-62
2021/01/01 03:48:07;;;;;;;4.45;4.05;;;4.40;99.90;;;;;;5090557;28;20063;-62
2021/01/01 03:50:33;;;;;;;4.40;3.92;;;4.60;99.90;;;;;;5084906;28;20036;-61
2021/01/01 03:52:59;;;;;;;4.40;3.92;;;4.40;99.90;;;;;;5090496;28;20165;-62
2021/01/01 03:55:24;;;;;;;5.20;4.35;;;4.50;99.90;;;;;;5084303;28;20560;-61
2021/01/01 03:57:50;;;;;;;4.40;4.00;;;4.50;99.90;;;;;;5090193;28;20012;-62
2021/01/01 04:00:16;;;;;;;4.43;4.03;;;4.50;99.90;;;;;;5083384;28;20052;-61
2021/01/01 04:02:42;;;;;;;4.53;4.22;;;4.60;99.90;;;;;;5090275;28;20040;-62
2021/01/01 04:05:08;;;;;;;5.13;4.30;;;4.60;99.90;;;;;;5083411;28;20060;-62
2021/01/01 04:07:34;;;;;;;4.75;4.45;;;4.50;99.90;;;;;;5088237;28;20016;-62
2021/01/01 04:09:59;;;;;;;6.57;6.05;;;4.60;99.90;;;;;;5084545;28;20401;-62
2021/01/01 04:12:25;;;;;;;5.70;5.20;;;4.50;99.90;;;;;;5087472;28;20036;-62
2021/01/01 04:14:51;;;;;;;4.93;4.55;;;4.40;99.90;;;;;;5085857;28;20020;-62
2021/01/01 04:17:17;;;;;;;6.07;5.47;;;4.50;99.90;;;;;;5087344;28;20062;-62
2021/01/01 04:19:43;;;;;;;12.10;5.45;;;4.40;99.90;;;;;;5086875;28;20191;-62
2021/01/01 04:22:09;;;;;;;6.50;5.75;;;4.50;99.90;;;;;;5086330;28;20044;-61
2021/01/01 04:24:34;;;;;;;4.63;4.20;;;4.30;99.90;;;;;;5086702;28;20032;-62
2021/01/01 04:27:00;;;;;;;4.57;4.20;;;4.30;99.90;;;;;;5082661;28;20033;-62
2021/01/01 04:29:26;;;;;;;5.95;4.10;;;4.40;99.90;;;;;;5085876;28;20515;-61
2021/01/01 04:31:51;;;;;;;4.65;4.35;;;4.40;99.90;;;;;;5086308;28;20476;-61
2021/01/01 04:34:17;;;;;;;7.28;4.28;;;4.40;99.90;;;;;;5088396;28;20313;-62
2021/01/01 04:36:43;;;;;;;4.05;3.72;;;4.40;99.90;;;;;;5085625;28;20019;-61
2021/01/01 04:39:08;;;;;;;7.28;4.20;;;4.40;99.90;;;;;;5088946;28;20040;-62
2021/01/01 04:41:36;;;;;;;4.90;3.88;;;4.20;99.90;;;;;;5083411;28;20500;-62
2021/01/01 04:44:03;;;;;;;4.97;3.97;;;4.20;99.90;;;;;;5089447;28;20123;-61
2021/01/01 04:46:29;;;;;;;4.72;4.22;;;4.10;99.90;;;;;;5082002;28;20048;-61
2021/01/01 04:48:56;;;;;;;4.97;4.45;;;4.10;99.90;;;;;;5087914;28;20024;-62
2021/01/01 04:51:21;;;;;;;6.93;5.82;;;4.00;99.90;;;;;;5082196;28;20016;-61
2021/01/01 04:53:48;;;;;;;6.35;5.35;;;4.10;99.90;;;;;;5086078;28;20092;-61
2021/01/01 04:56:14;;;;;;;4.75;4.32;;;4.10;99.90;;;;;;5082914;28;20506;-61
2021/01/01 04:58:39;;;;;;;7.20;4.88;;;4.10;99.90;;;;;;5089309;28;20036;-61
2021/01/01 05:01:05;;;;;;;6.13;4.97;;;4.10;99.90;;;;;;5082767;28;20479;-62
2021/01/01 05:03:31;;;;;;;6.57;5.50;;;4.00;99.90;;;;;;5089424;28;20491;-62
2021/01/01 05:05:57;;;;;;;6.88;4.90;;;4.00;99.90;;;;;;5081054;28;20139;-62
2021/01/01 05:08:23;;;;;;;5.43;5.03;;;4.00;99.90;;;;;;5089344;28;20027;-62
2021/01/01 05:10:50;;;;;;;5.53;5.03;;;3.90;99.90;;;;;;5085952;28;20016;-61
2021/01/01 05:13:18;;;;;;;5.40;5.03;;;4.00;99.90;;;;;;5087229;28;20024;-62
2021/01/01 05:15:46;;;;;;;5.00;4.50;;;3.90;99.90;;;;;;5082512;28;20040;-61
2021/01/01 05:18:30;;;;;;;5.78;4.82;;;3.90;99.90;;;;;;5089599;28;20020;-62
2021/01/01 05:20:59;;;;;;;4.25;3.95;;;4.10;99.90;;;;;;5080148;28;20038;-62
2021/01/01 05:23:27;;;;;;;4.55;4.10;;;3.90;99.90;;;;;;5090432;28;20516;-62
2021/01/01 05:26:13;;;;;;;4.40;4.10;;;3.90;99.90;;;;;;5087465;28;20085;-62
2021/01/01 05:28:51;;;;;;;4.55;4.15;;;4.00;99.90;;;;;;5081727;28;20069;-62
2021/01/01 05:31:28;;;;;;;4.32;3.95;;;4.00;99.90;;;;;;5087924;28;20024;-62
2021/01/01 05:34:04;;;;;;;4.78;4.18;;;4.00;99.90;;;;;;5092942;28;20480;-62
2021/01/01 05:36:36;;;;;;;6.20;4.47;;;4.00;99.90;;;;;;5086734;28;20012;-62
2021/01/01 05:39:07;;;;;;;7.05;4.97;;;3.80;99.90;;;;;;5093223;28;20040;-62
2021/01/01 05:41:52;;;;;;;5.53;5.03;;;3.90;99.90;;;;;;5091869;28;20107;-62
2021/01/01 05:44:20;;;;;;;5.32;4.88;;;3.60;99.90;;;;;;5091514;28;20111;-62
2021/01/01 05:47:06;;;;;;;4.88;4.57;;;3.60;99.90;;;;;;5085857;28;20537;-61
2021/01/01 05:49:35;;;;;;;8.65;5.65;;;3.80;99.90;;;;;;5091637;28;20030;-61
2021/01/01 05:52:06;;;;;;;5.32;4.93;;;3.60;99.90;;;;;;5088185;28;20033;-62
2021/01/01 05:54:37;;;;;;;5.90;5.40;;;3.50;99.90;;;;;;5090768;28;20492;-62
2021/01/01 05:57:05;;;;;;;6.00;5.30;;;3.70;99.90;;;;;;5087944;28;20229;-62
2021/01/01 05:59:35;;;;;;;4.97;4.57;;;3.70;99.90;;;;;;5090308;28;20040;-62
2021/01/01 06:02:02;;;;;;;5.68;5.18;;;3.60;99.90;;;;;;5083980;28;20016;-61
2021/01/01 06:04:28;;;;;;;5.93;4.80;;;3.50;99.90;;;;;;5090396;28;20040;-61
2021/01/01 06:06:54;;;;;;;5.55;5.05;;;3.50;99.90;;;;;;5083179;28;20020;-62
2021/01/01 06:09:23;;;;;;;5.38;4.88;;;3.50;99.90;;;;;;5091139;28;20034;-62
2021/01/01 06:11:59;;;;;;;7.20;5.15;;;3.50;99.90;;;;;;5089026;28;20020;-62
2021/01/01 06:14:41;;;;;;;6.35;5.32;;;3.40;99.90;;;;;;5090344;28;20024;-62
2021/01/01 06:17:09;;;;;;;5.88;5.25;;;3.60;99.90;;;;;;5087998;28;20047;-62
2021/01/01 06:19:52;;;;;;;5.60;5.20;;;3.60;99.90;;;;;;5090207;28;20064;-62
2021/01/01 06:22:20;;;;;;;5.72;5.22;;;3.70;99.90;;;;;;5089655;28;20064;-62
2021/01/01 06:24:52;;;;;;;6.05;5.35;;;3.70;99.90;;;;;;5090074;28;20016;-62
2021/01/01 06:27:19;;;;;;;5.95;5.45;;;3.70;99.90;;;;;;5090737;28;20035;-62
2021/01/01 06:29:50;;;;;;;5.93;5.53;;;3.50;99.90;;;;;;5088932;28;20385;-62
2021/01/01 06:32:19;;;;;;;5.78;5.28;;;3.70;99.90;;;;;;5090710;28;20028;-62
2021/01/01 06:34:45;;;;;;;5.57;5.03;;;3.40;99.90;;;;;;5087760;28;20496;-62
2021/01/01 06:37:48;;;;;;;6.28;5.40;;;3.30;99.90;;;;;;5088425;28;20090;-61
2021/01/01 06:40:20;;;;;;;5.35;5.00;;;3.50;99.90;;;;;;5077324;28;20584;-61
2021/01/01 06:43:03;;;;;;;5.85;5.35;;;3.40;99.90;;;;;;5087388;28;20016;-62
2021/01/01 06:45:42;;;;;;;5.40;4.90;;;3.40;99.90;;;;;;5085692;28;20119;-62
2021/01/01 06:48:11;;;;;;;5.85;5.45;;;3.50;99.90;;;;;;5091692;28;20012;-62
2021/01/01 06:50:41;;;;;;;5.25;4.85;;;3.30;99.90;;;;;;5083922;28;20488;-62
2021/01/01 06:53:13;;;;;;;5.32;5.03;;;3.40;99.90;;;;;;5087893;28;20024;-62
2021/01/01 06:55:41;;;;;;;5.90;5.40;;;3.30;99.90;;;;;;5084734;28;20029;-62
2021/01/01 06:58:07;;;;;;;6.57;5.43;;;3.20;99.90;;;;;;5086534;28;20023;-61
2021/01/01 07:00:45;;;;;;;8.07;7.28;;;3.30;99.90;;;;;;5084543;28;20036;-62
2021/01/01 07:03:29;;;;;;;8.55;7.38;;;3.40;99.90;;;;;;5091431;28;20024;-62
2021/01/01 07:06:01;;;;;;;8.00;7.15;;;3.30;99.90;;;;;;5081943;28;20035;-62
2021/01/01 07:08:45;;;;;;;8.02;7.22;;;3.30;99.90;;;;;;5089389;28;20024;-62
2021/01/01 07:11:13;;;;;;;7.63;6.90;;;3.30;99.90;;;;;;5084629;28;20028;-62
2021/01/01 07:13:52;;;;;;;6.32;5.82;;;3.30;99.90;;;;;;5085794;28;20016;-62
2021/01/01 07:16:20;;;;;;;8.48;6.68;;;3.20;99.90;;;;;;5084578;28;20447;-62
2021/01/01 07:18:46;;;;;;;6.88;6.28;;;3.20;99.90;;;;;;5091208;28;20024;-61
2021/01/01 07:21:15;;;;;;;7.10;6.40;;;3.20;99.90;;;;;;5084465;28;20059;-61
2021/01/01 07:23:41;;;;;;;6.80;6.22;;;3.00;99.90;;;;;;5090944;28;20476;-62
2021/01/01 07:26:07;;;;;;;7.53;6.93;;;2.90;99.90;;;;;;5084419;28;20528;-62
2021/01/01 07:28:33;;;;;;;7.65;7.05;;;3.00;99.90;;;;;;5090855;28;20031;-62
2021/01/01 07:30:59;;;;;;;6.55;5.95;;;2.90;99.90;;;;;;5085974;28;20136;-61
2021/01/01 07:33:27;;;;;;;7.93;5.88;;;2.70;99.90;;;;;;5090783;28;20095;-62
2021/01/01 07:35:54;;;;;;;6.88;6.38;;;2.60;99.90;;;;;;5084015;28;20032;-62
2021/01/01 07:38:21;;;;;;;6.15;5.60;;;2.70;99.90;;;;;;5090627;28;20024;-61
2021/01/01 07:40:47;;;;;;;6.00;5.50;;;2.60;99.90;;;;;;5084244;28;20093;-62
2021/01/01 07:43:13;;;;;;;6.50;5.82;;;2.70;99.90;;;;;;5090295;28;20024;-62
2021/01/01 07:45:40;;;;;;;6.63;5.95;;;2.70;99.90;;;;;;5084450;28;20035;-62
2021/01/01 07:48:06;;;;;;;5.28;4.78;;;2.50;99.90;;;;;;5090417;28;20069;-62
2021/01/01 07:50:32;;;;;;;6.55;5.82;;;2.60;99.90;;;;;;5084084;28;20060;-62
2021/01/01 07:53:03;;;;;;;6.05;5.20;;;2.60;99.90;;;;;;5090218;28;20019;-62
2021/01/01 07:55:29;;;;;;;6.38;5.80;;;2.70;99.90;;;;;;5085921;28;20016;-62
2021/01/01 07:58:01;;;;;;;5.28;4.90;;;2.50;99.90;;;;;;5084505;28;20024;-62
2021/01/01 08:00:32;;;;;;;4.88;4.57;;;2.60;99.90;;;;;;5086625;28;20194;-62
2021/01/01 08:03:00;;;;;;;4.60;4.30;;;2.60;99.90;;;;;;5084236;28;20075;-62
2021/01/01 08:05:26;;;;;;;3.95;3.65;;;2.50;99.90;;;;;;5087905;28;20028;-62
2021/01/01 08:07:52;;;;;;;4.75;4.45;;;2.70;99.90;;;;;;5089189;28;20090;-62
2021/01/01 08:10:31;;;;;;;7.47;5.10;;;2.70;99.90;;;;;;5085993;28;20492;-62
2021/01/01 08:12:57;;;;;;;5.93;5.45;;;2.60;99.90;;;;;;5087190;28;20020;-62
2021/01/01 08:15:30;;;;;;;6.00;5.43;;;2.70;99.90;;;;;;5084683;28;20028;-62
2021/01/01 08:17:56;;;;;;;6.45;5.82;;;2.60;99.90;;;;;;5086426;28;20513;-62
2021/01/01 08:20:22;;;;;;;6.38;5.50;;;2.70;99.90;;;;;;5084589;28;20476;-62
2021/01/01 08:22:51;;;;;;;6.82;6.28;;;2.60;99.90;;;;;;5089702;28;20023;-62
2021/01/01 08:25:17;;;;;;;5.90;5.50;;;2.70;99.90;;;;;;5083027;28;20035;-62
2021/01/01 08:27:46;;;;;;;6.90;6.20;;;2.80;99.90;;;;;;5071729;28;20478;-62
2021/01/01 08:30:12;;;;;;;8.48;7.30;;;2.70;99.90;;;;;;5085107;28;20112;-62
2021/01/01 08:32:39;;;;;;;10.57;8.32;;;2.90;99.90;;;;;;5085537;28;20035;-62
2021/01/01 08:35:09;;;;;;;10.18;8.55;;;2.90;99.90;;;;;;5084345;28;20039;-62
2021/01/01 08:37:35;;;;;;;10.15;8.40;;;3.00;99.90;;;;;;5084006;28;20025;-62
2021/01/01 08:40:06;;;;;;;10.05;9.15;;;3.20;99.90;;;;;;5084794;28;20036;-62
2021/01/01 08:42:36;;;;;;;9.73;8.93;;;3.50;99.90;;;;;;5088609;28;20024;-62
2021/01/01 08:45:07;;;;;;;10.32;9.40;;;3.30;99.90;;;;;;5084751;28;20053;-62
2021/01/01 08:47:43;;;;;;;8.43;7.82;;;3.30;99.90;;;;;;5088787;28;20027;-62
2021/01/01 08:50:19;;;;;;;9.75;8.30;;;3.40;99.90;;;;;;5083572;28;20497;-62
2021/01/01 08:52:46;;;;;;;9.70;8.80;;;3.30;99.90;;;;;;5087912;28;20020;-62
2021/01/01 08:55:13;;;;;;;10.27;9.27;;;3.40;99.90;;;;;;5086330;28;20037;-62
2021/01/01 08:57:38;;;;;;;11.05;10.10;;;3.40;99.90;;;;;;5083591;28;20423;-62
2021/01/01 09:00:06;;;;;;;10.70;9.75;;;3.50;99.90;;;;;;5088290;28;20041;-62
2021/01/01 09:02:33;;;;;;;13.10;11.07;;;3.60;99.90;;;;;;5092647;28;20008;-62
2021/01/01 09:05:03;;;;;;;13.15;11.85;;;3.50;99.90;;;;;;5089444;28;20115;-62
2021/01/01 09:07:29;;;;;;;17.27;12.30;;;3.60;99.90;;;;;;5092009;28;20166;-62
2021/01/01 09:09:55;;;;;;;12.70;11.45;;;3.40;99.90;;;;;;5089894;28;20111;-62
2021/01/01 09:12:22;;;;;;;14.15;12.43;;;3.60;99.90;;;;;;5090795;28;20043;-62
2021/01/01 09:14:55;;;;;;;12.27;11.07;;;3.50;99.90;;;;;;5106155;28;20170;-62
2021/01/01 09:17:25;;;;;;;13.05;11.85;;;3.50;99.90;;;;;;5090750;28;20114;-62
2021/01/01 09:20:06;;;;;;;13.25;11.63;;;3.70;99.90;;;;;;5090201;28;20036;-62
2021/01/01 09:22:33;;;;;;;18.33;11.70;;;3.70;99.90;;;;;;5072327;28;20020;-62
2021/01/01 09:25:19;;;;;;;17.27;12.57;;;3.80;99.90;;;;;;5091060;28;20024;-62
2021/01/01 09:27:46;;;;;;;16.98;14.98;;;3.80;99.90;;;;;;5086134;28;20388;-62
2021/01/01 09:30:15;;;;;;;14.23;12.73;;;3.70;99.90;;;;;;5088775;28;20021;-62
2021/01/01 09:32:48;;;;;;;15.68;12.73;;;3.80;99.90;;;;;;5090970;28;20012;-62
2021/01/01 09:35:14;;;;;;;14.23;12.85;;;3.80;99.90;;;;;;5086651;28;20028;-62
2021/01/01 09:37:46;;;;;;;13.65;12.30;;;3.90;99.90;;;;;;5089601;28;20099;-61
2021/01/01 09:40:13;;;;;;;15.00;11.50;;;4.50;99.90;;;;;;5086748;28;20522;-62
2021/01/01 09:42:38;;;;;;;12.30;10.77;;;4.40;99.90;;;;;;5092518;28;20016;-62
2021/01/01 09:45:05;;;;;;;12.27;11.07;;;4.00;99.90;;;;;;5087793;28;20032;-62
2021/01/01 09:47:30;;;;;;;14.85;12.57;;;4.00;99.90;;;;;;5090603;28;20384;-69
2021/01/01 09:49:56;;;;;;;15.55;12.38;;;4.00;99.90;;;;;;5089816;28;20024;-64
2021/01/01 09:52:22;;;;;;;13.48;12.18;;;4.10;99.90;;;;;;5091651;28;20020;-65
2021/01/01 09:54:47;;;;;;;13.73;12.10;;;4.00;99.90;;;;;;5089862;28;20039;-65
2021/01/01 09:57:13;;;;;;;12.70;11.10;;;4.00;99.90;;;;;;5089656;28;20511;-70
2021/01/01 09:59:38;;;;;;;15.25;13.10;;;4.10;99.90;;;;;;5084863;28;20044;-69
2021/01/01 10:02:04;;;;;;;14.80;12.18;;;4.00;99.90;;;;;;5087880;28;20024;-62
2021/01/01 10:04:30;;;;;;;13.07;11.77;;;4.20;99.90;;;;;;5089966;28;20024;-62
2021/01/01 10:06:55;;;;;;;13.25;11.90;;;4.30;99.90;;;;;;5089592;28;20008;-61
2021/01/01 10:09:21;;;;;;;13.88;11.25;;;4.10;99.90;;;;;;5090216;28;20038;-62
2021/01/01 10:11:51;;;;;;;13.38;11.98;;;4.00;99.90;;;;;;5084025;28;20070;-62
2021/01/01 10:14:16;;;;;;;14.70;12.77;;;4.00;99.90;;;;;;5090725;28;20020;-69
2021/01/01 10:16:46;;;;;;;14.52;13.07;;;3.90;99.90;;;;;;5088094;28;20040;-61
2021/01/01 10:19:11;;;;;;;14.73;13.23;;;3.90;99.90;;;;;;5073038;28;20484;-61
2021/01/01 10:21:37;;;;;;;13.40;12.02;;;3.80;99.90;;;;;;5087950;28;20024;-61
2021/01/01 10:24:03;;;;;;;16.73;13.70;;;3.60;99.90;;;;;;5078611;28;20031;-61
2021/01/01 10:26:28;;;;;;;16.63;14.63;;;3.80;99.90;;;;;;5079741;28;20055;-61
2021/01/01 10:28:54;;;;;;;17.85;14.70;;;3.50;99.90;;;;;;5086039;28;20024;-62
2021/01/01 10:31:23;;;;;;;17.35;14.57;;;3.80;99.90;;;;;;5089787;28;20055;-61
2021/01/01 10:33:49;;;;;;;20.00;13.60;;;4.00;99.90;;;;;;5091843;28;20016;-61
2021/01/01 10:36:15;;;;;;;14.73;13.30;;;4.10;99.90;;;;;;5086239;28;20055;-60
2021/01/01 10:38:42;;;;;;;14.95;13.32;;;4.30;99.90;;;;;;5090390;28;20055;-61
2021/01/01 10:41:11;;;;;;;14.80;12.52;;;4.00;99.90;;;;;;5083816;28;20119;-60
2021/01/01 10:43:37;;;;;;;18.08;13.18;;;3.90;99.90;;;;;;5071470;28;20088;-66
2021/01/01 10:46:03;;;;;;;13.18;11.90;;;4.20;99.90;;;;;;5085809;28;21840;-60
2021/01/01 10:48:28;;;;;;;12.27;11.25;;;4.20;99.90;;;;;;5072559;28;20035;-61
2021/01/01 10:50:54;;;;;;;15.63;12.63;;;4.20;99.90;;;;;;5084104;28;20073;-67
2021/01/01 10:53:19;;;;;;;13.30;12.05;;;4.20;99.90;;;;;;5087484;28;20115;-61
2021/01/01 10:55:45;;;;;;;13.75;12.10;;;4.40;99.90;;;;;;5085026;28;20020;-64
2021/01/01 10:58:11;;;;;;;13.68;12.27;;;4.10;99.90;;;;;;5081664;28;20476;-61
2021/01/01 11:00:37;;;;;;;12.95;11.63;;;4.30;99.90;;;;;;5088039;28;20438;-61
2021/01/01 11:03:02;;;;;;;12.82;11.50;;;4.30;99.90;;;;;;5087882;28;20020;-61
2021/01/01 11:05:28;;;;;;;15.02;12.40;;;4.20;99.90;;;;;;5086981;28;20026;-61
2021/01/01 11:07:54;;;;;;;13.27;11.95;;;4.20;99.90;;;;;;5088622;28;20074;-61
2021/01/01 11:10:20;;;;;;;13.80;12.38;;;4.10;99.90;;;;;;5086216;28;20020;-61
2021/01/01 11:12:46;;;;;;;14.60;13.10;;;4.40;99.90;;;;;;5087646;28;20024;-61
2021/01/01 12:19:30;;;;;;;15.23;13.63;;;4.30;99.90;;;;;;5085147;28;20028;-61
2021/01/01 12:19:42;;;;;;;15.48;13.20;;;7.20;99.90;;;;;;5069953;28;20044;-60
2021/01/01 12:22:04;;;;;;;12.48;11.00;;;6.40;99.90;;;;;;5078559;28;20029;-61
2021/01/01 12:27:03;;;;;;;11.88;10.77;;;6.60;99.90;;;;;;5079936;28;20078;-61
2021/01/01 12:29:29;;;;;;;10.00;8.77;;;7.40;99.90;;;;;;5088520;28;20055;-61
2021/01/01 12:31:56;;;;;;;11.25;9.30;;;7.60;99.90;;;;;;5085534;28;20025;-60
2021/01/01 12:34:22;;;;;;;11.68;9.75;;;8.10;99.90;;;;;;5088558;28;20269;-59
2021/01/01 12:36:48;;;;;;;10.85;9.85;;;7.90;99.90;;;;;;5088108;28;20310;-60
2021/01/01 12:39:13;;;;;;;11.30;10.20;;;8.10;99.90;;;;;;5089327;28;20085;-60
2021/01/01 12:41:39;;;;;;;10.30;9.45;;;8.00;99.90;;;;;;5086861;28;20051;-70
2021/01/01 12:44:05;;;;;;;11.65;10.48;;;8.60;99.90;;;;;;5071240;28;20370;-60
2021/01/01 12:46:31;;;;;;;11.35;10.32;;;8.20;99.90;;;;;;5087426;28;20055;-59
2021/01/01 12:48:57;;;;;;;10.95;9.85;;;7.90;99.90;;;;;;5089109;28;20391;-68
2021/01/01 12:51:23;;;;;;;10.10;9.30;;;7.70;99.90;;;;;;5086875;28;20108;-69
2021/01/01 12:53:49;;;;;;;9.32;8.38;;;8.10;99.90;;;;;;5088485;28;20385;-60
2021/01/01 12:56:14;;;;;;;11.18;10.10;;;8.80;99.90;;;;;;5086630;28;20057;-66
2021/01/01 12:58:40;;;;;;;10.98;9.90;;;9.10;99.90;;;;;;5088612;28;20066;-69
2021/01/01 13:01:06;;;;;;;16.02;10.25;;;8.50;99.90;;;;;;5087366;28;20094;-60
2021/01/01 13:03:31;;;;;;;10.52;9.52;;;8.20;99.90;;;;;;5088488;28;20027;-63
2021/01/01 13:05:58;;;;;;;13.77;9.95;;;8.20;99.90;;;;;;5086901;28;20028;-60
2021/01/01 13:08:24;;;;;;;10.40;9.43;;;8.20;99.90;;;;;;5088219;28;20507;-62
2021/01/01 13:10:49;;;;;;;13.43;9.90;;;8.10;99.90;;;;;;5082128;28;20024;-60
2021/01/01 13:13:15;;;;;;;10.25;9.40;;;8.00;99.90;;;;;;5090288;28;20028;-60
2021/01/01 13:15:41;;;;;;;10.13;9.20;;;8.60;99.90;;;;;;5083914;28;20508;-59
2021/01/01 13:18:06;;;;;;;9.88;8.77;;;8.60;99.90;;;;;;5088279;28;20027;-65
2021/01/01 13:20:33;;;;;;;10.88;8.35;;;9.00;99.90;;;;;;5083099;28;20028;-60
2021/01/01 13:22:59;;;;;;;11.07;10.07;;;9.30;99.90;;;;;;5088658;28;20016;-61
2021/01/01 13:25:24;;;;;;;10.88;9.07;;;8.60;99.90;;;;;;5080547;28;20423;-60
2021/01/01 13:27:50;;;;;;;9.43;8.52;;;7.80;99.90;;;;;;5087246;28;20027;-60
2021/01/01 13:30:17;;;;;;;9.45;8.50;;;7.70;99.90;;;;;;5084433;28;20070;-68
2021/01/01 13:32:43;;;;;;;9.40;8.60;;;7.30;99.90;;;;;;5091734;28;20028;-59
2021/01/01 13:35:10;;;;;;;9.90;9.10;;;6.90;99.90;;;;;;5081195;28;20104;-60
2021/01/01 13:37:36;;;;;;;11.45;8.75;;;7.20;99.90;;;;;;5086826;28;20077;-60
2021/01/01 13:40:04;;;;;;;8.13;7.45;;;7.60;99.90;;;;;;5084696;28;20439;-61
2021/01/01 13:42:30;;;;;;;8.00;7.32;;;7.90;99.90;;;;;;5086288;28;20016;-66
2021/01/01 13:44:56;;;;;;;7.82;7.22;;;7.80;99.90;;;;;;5084703;28;20527;-61
2021/01/01 13:47:23;;;;;;;7.35;6.85;;;8.10;99.90;;;;;;5091416;28;20016;-61
2021/01/01 13:49:48;;;;;;;7.20;6.57;;;8.20;99.90;;;;;;5085608;28;20028;-58
2021/01/01 13:52:15;;;;;;;6.68;6.10;;;7.80;99.90;;;;;;5080716;28;20373;-59
2021/01/01 13:54:40;;;;;;;7.47;6.50;;;7.60;99.90;;;;;;5083678;28;20051;-60
2021/01/01 13:57:06;;;;;;;7.53;6.82;;;7.40;99.90;;;;;;5080848;28;20048;-60